SVA1041 OEJN-OEMA
Flight info
| Callsign | SVA1041 |
|---|---|
| Flight time | 0h 32m |
| Altitude | 28000 |
| Route | DATAP A424 DEGVU |
| Aircraft | A320/M-SDE3FGHIRWY/LB1 |
Departure
| Time | 2026-05-04 07:14 |
|---|---|
| Airport | King Abdulaziz International Airport (OEJN) |
Arrival
| Time | 2026-05-04 07:46 |
|---|---|
| Airport | Prince Mohammad Bin Abdulaziz Airport (OEMA) |
| Time | Latitude | Longitude | Altitude | Speed | Heading |
|---|---|---|---|---|---|
| 2026-05-04 06:57 | 21.66253 | 39.17093 | 32 ft | 0 kts | 119° |
| 2026-05-04 07:08 | 21.66284 | 39.16988 | 32 ft | 0 kts | 27° |
| 2026-05-04 07:12 | 21.66406 | 39.16968 | 32 ft | 9 kts | 279° |
| 2026-05-04 07:12 | 21.66389 | 39.16891 | 32 ft | 14 kts | 249° |
| 2026-05-04 07:12 | 21.66350 | 39.16778 | 31 ft | 16 kts | 250° |
| 2026-05-04 07:12 | 21.66303 | 39.16645 | 33 ft | 22 kts | 249° |
| 2026-05-04 07:13 | 21.66268 | 39.16543 | 32 ft | 15 kts | 250° |
| 2026-05-04 07:13 | 21.66258 | 39.16450 | 31 ft | 12 kts | 310° |
| 2026-05-04 07:13 | 21.66325 | 39.16407 | 33 ft | 10 kts | 341° |
| 2026-05-04 07:14 | 21.70533 | 39.14797 | 1163 ft | 259 kts | 340° |
| 2026-05-04 07:14 | 21.72254 | 39.14119 | 2279 ft | 262 kts | 340° |
| 2026-05-04 07:15 | 21.73947 | 39.13456 | 3784 ft | 258 kts | 340° |
| 2026-05-04 07:15 | 21.75679 | 39.12773 | 4782 ft | 273 kts | 341° |
| 2026-05-04 07:15 | 21.77471 | 39.12064 | 5309 ft | 273 kts | 341° |
| 2026-05-04 07:15 | 21.79269 | 39.11350 | 5635 ft | 276 kts | 341° |
| 2026-05-04 07:16 | 21.81069 | 39.10629 | 5800 ft | 276 kts | 341° |
| 2026-05-04 07:16 | 21.82872 | 39.09907 | 5888 ft | 279 kts | 341° |
| 2026-05-04 07:16 | 21.84682 | 39.09183 | 5982 ft | 277 kts | 341° |
| 2026-05-04 07:16 | 21.86500 | 39.08456 | 5820 ft | 279 kts | 341° |
| 2026-05-04 07:17 | 21.88427 | 39.07688 | 5913 ft | 322 kts | 341° |
| 2026-05-04 07:17 | 21.90622 | 39.06747 | 5926 ft | 350 kts | 337° |
| 2026-05-04 07:17 | 21.92877 | 39.05664 | 5923 ft | 356 kts | 337° |
| 2026-05-04 07:17 | 21.95132 | 39.04583 | 5909 ft | 355 kts | 337° |
| 2026-05-04 07:18 | 21.97397 | 39.03499 | 5932 ft | 356 kts | 337° |
| 2026-05-04 07:18 | 21.99665 | 39.02415 | 5917 ft | 358 kts | 337° |
| 2026-05-04 07:18 | 22.01935 | 39.01329 | 5999 ft | 356 kts | 337° |
| 2026-05-04 07:18 | 22.04216 | 39.00237 | 6187 ft | 362 kts | 337° |
| 2026-05-04 07:19 | 22.06525 | 38.99132 | 7186 ft | 362 kts | 337° |
| 2026-05-04 07:19 | 22.08830 | 38.98030 | 8305 ft | 364 kts | 336° |
| 2026-05-04 07:19 | 22.11162 | 38.96914 | 9310 ft | 369 kts | 336° |
| 2026-05-04 07:19 | 22.13618 | 38.96082 | 10280 ft | 374 kts | 351° |
| 2026-05-04 07:20 | 22.16237 | 38.96062 | 11123 ft | 382 kts | 7° |
| 2026-05-04 07:20 | 22.18810 | 38.96881 | 11624 ft | 392 kts | 25° |
| 2026-05-04 07:20 | 22.21091 | 38.98497 | 12048 ft | 394 kts | 40° |
| 2026-05-04 07:20 | 22.23137 | 39.00488 | 12380 ft | 399 kts | 44° |
| 2026-05-04 07:22 | 22.36872 | 39.15346 | 12913 ft | 401 kts | 47° |
| 2026-05-04 07:22 | 22.38785 | 39.17540 | 12913 ft | 401 kts | 48° |
| 2026-05-04 07:23 | 22.40697 | 39.19734 | 12918 ft | 401 kts | 48° |
| 2026-05-04 07:23 | 22.42606 | 39.21925 | 12918 ft | 401 kts | 48° |
| 2026-05-04 07:23 | 22.44517 | 39.24121 | 12920 ft | 401 kts | 48° |
| 2026-05-04 07:23 | 22.46427 | 39.26318 | 12931 ft | 402 kts | 48° |
| 2026-05-04 07:24 | 22.48320 | 39.28496 | 12923 ft | 401 kts | 48° |
| 2026-05-04 07:24 | 22.50231 | 39.30697 | 12929 ft | 401 kts | 48° |
| 2026-05-04 07:24 | 22.51813 | 39.32518 | 12928 ft | 401 kts | 48° |
| 2026-05-04 07:26 | 22.63247 | 39.45707 | 15110 ft | 419 kts | 46° |
| 2026-05-04 07:27 | 22.65467 | 39.47781 | 15894 ft | 426 kts | 35° |
| 2026-05-04 07:27 | 22.68038 | 39.49425 | 16698 ft | 432 kts | 24° |
| 2026-05-04 07:27 | 22.70816 | 39.50594 | 17494 ft | 437 kts | 18° |
| 2026-05-04 07:27 | 22.73705 | 39.51698 | 18257 ft | 443 kts | 17° |
| 2026-05-04 07:28 | 22.76019 | 39.52588 | 18860 ft | 445 kts | 17° |
| 2026-05-04 07:28 | 22.78094 | 39.53390 | 19423 ft | 447 kts | 17° |
| 2026-05-04 07:28 | 22.78963 | 39.53727 | 19640 ft | 448 kts | 17° |
| 2026-05-04 07:29 | 22.79992 | 39.54126 | 19887 ft | 450 kts | 17° |
| 2026-05-04 07:29 | 22.82948 | 39.55273 | 20609 ft | 454 kts | 17° |
| 2026-05-04 07:30 | 22.85944 | 39.56436 | 21346 ft | 458 kts | 17° |
| 2026-05-04 07:30 | 22.88959 | 39.57607 | 22055 ft | 462 kts | 16° |
| 2026-05-04 07:30 | 22.92006 | 39.58790 | 22772 ft | 466 kts | 16° |
| 2026-05-04 07:30 | 22.95034 | 39.59967 | 23472 ft | 470 kts | 16° |
| 2026-05-04 07:31 | 22.98167 | 39.61179 | 24024 ft | 474 kts | 14° |
| 2026-05-04 07:31 | 23.01318 | 39.62116 | 24481 ft | 477 kts | 7° |
| 2026-05-04 07:33 | 23.24973 | 39.63748 | 27692 ft | 500 kts | 357° |
| 2026-05-04 07:33 | 23.28463 | 39.63932 | 27922 ft | 504 kts | 357° |
| 2026-05-04 07:33 | 23.31973 | 39.64116 | 28270 ft | 506 kts | 357° |
| 2026-05-04 07:33 | 23.35510 | 39.64301 | 28574 ft | 509 kts | 357° |
| 2026-05-04 07:34 | 23.39015 | 39.64484 | 28790 ft | 512 kts | 356° |
| 2026-05-04 07:34 | 23.42583 | 39.64670 | 29028 ft | 514 kts | 356° |
| 2026-05-04 07:34 | 23.46146 | 39.64857 | 29342 ft | 512 kts | 356° |
| 2026-05-04 07:34 | 23.49699 | 39.65044 | 29588 ft | 508 kts | 356° |
| 2026-05-04 07:35 | 23.53208 | 39.65230 | 29182 ft | 502 kts | 356° |
| 2026-05-04 07:35 | 23.56683 | 39.65413 | 28349 ft | 498 kts | 356° |
| 2026-05-04 07:35 | 23.60123 | 39.65591 | 27520 ft | 491 kts | 357° |
| 2026-05-04 07:35 | 23.63510 | 39.65764 | 26627 ft | 483 kts | 357° |
| 2026-05-04 07:36 | 23.66846 | 39.65931 | 25773 ft | 476 kts | 357° |
| 2026-05-04 07:36 | 23.70127 | 39.66098 | 24950 ft | 469 kts | 358° |
| 2026-05-04 07:38 | 23.89890 | 39.69490 | 19587 ft | 433 kts | 6° |
| 2026-05-04 07:38 | 23.92850 | 39.70021 | 18741 ft | 430 kts | 6° |
| 2026-05-04 07:38 | 23.95792 | 39.70549 | 17897 ft | 426 kts | 6° |
| 2026-05-04 07:38 | 23.98684 | 39.71069 | 17144 ft | 419 kts | 7° |
| 2026-05-04 07:39 | 24.01535 | 39.71583 | 16373 ft | 412 kts | 7° |
| 2026-05-04 07:39 | 24.04350 | 39.72090 | 15602 ft | 406 kts | 7° |
| 2026-05-04 07:39 | 24.07121 | 39.72590 | 14859 ft | 401 kts | 7° |
| 2026-05-04 07:39 | 24.09854 | 39.73084 | 14145 ft | 395 kts | 8° |
| 2026-05-04 07:40 | 24.12545 | 39.73570 | 13340 ft | 388 kts | 8° |
| 2026-05-04 07:40 | 24.15188 | 39.74050 | 12185 ft | 382 kts | 8° |
| 2026-05-04 07:40 | 24.17687 | 39.74505 | 11193 ft | 376 kts | 8° |
| 2026-05-04 07:40 | 24.20203 | 39.74963 | 10674 ft | 356 kts | 8° |
| 2026-05-04 07:41 | 24.22626 | 39.75405 | 9524 ft | 355 kts | 7° |
| 2026-05-04 07:41 | 24.25065 | 39.75846 | 8684 ft | 349 kts | 8° |
| 2026-05-04 07:41 | 24.27377 | 39.76210 | 8399 ft | 322 kts | 2° |
| 2026-05-04 07:41 | 24.29502 | 39.76180 | 8206 ft | 299 kts | 353° |
| 2026-05-04 07:42 | 24.31498 | 39.75900 | 7663 ft | 287 kts | 350° |
| 2026-05-04 07:42 | 24.33517 | 39.75553 | 6664 ft | 293 kts | 349° |
| 2026-05-04 07:42 | 24.35491 | 39.75081 | 6163 ft | 281 kts | 346° |
| 2026-05-04 07:42 | 24.37327 | 39.74666 | 6017 ft | 260 kts | 347° |
| 2026-05-04 07:43 | 24.39051 | 39.74293 | 5868 ft | 245 kts | 347° |
| 2026-05-04 07:43 | 24.40649 | 39.73954 | 5701 ft | 222 kts | 347° |
| 2026-05-04 07:43 | 24.42154 | 39.73668 | 4980 ft | 222 kts | 350° |
| 2026-05-04 07:43 | 24.43653 | 39.73368 | 4494 ft | 216 kts | 342° |
| 2026-05-04 07:44 | 24.45051 | 39.73020 | 4291 ft | 197 kts | 350° |
| 2026-05-04 07:44 | 24.46352 | 39.72741 | 4197 ft | 183 kts | 346° |
| 2026-05-04 07:44 | 24.47560 | 39.72509 | 4199 ft | 172 kts | 346° |
| 2026-05-04 07:44 | 24.48735 | 39.72215 | 3837 ft | 176 kts | 347° |
| 2026-05-04 07:45 | 24.49909 | 39.71991 | 3305 ft | 170 kts | 348° |
| 2026-05-04 07:45 | 24.51039 | 39.71765 | 2863 ft | 159 kts | 347° |
| 2026-05-04 07:45 | 24.52074 | 39.71541 | 2544 ft | 145 kts | 347° |
| 2026-05-04 07:45 | 24.53004 | 39.71326 | 2314 ft | 133 kts | 347° |
| 2026-05-04 07:46 | 24.53888 | 39.71133 | 2143 ft | 124 kts | 347° |
| 2026-05-04 07:46 | 24.54759 | 39.70943 | 2114 ft | 108 kts | 349° |
| 2026-05-04 07:46 | 24.55239 | 39.70843 | 2109 ft | 44 kts | 351° |
| 2026-05-04 07:46 | 24.55485 | 39.70792 | 2109 ft | 42 kts | 349° |
| 2026-05-04 07:47 | 24.55801 | 39.70724 | 2112 ft | 49 kts | 349° |
| 2026-05-04 07:47 | 24.56134 | 39.70698 | 2113 ft | 29 kts | 12° |
| 2026-05-04 07:47 | 24.56266 | 39.70761 | 2110 ft | 21 kts | 52° |
| 2026-05-04 07:49 | 24.55901 | 39.71090 | 2105 ft | 17 kts | 170° |
| 2026-05-04 07:49 | 24.55780 | 39.71116 | 2105 ft | 17 kts | 169° |
| 2026-05-04 07:49 | 24.55744 | 39.71126 | 2105 ft | 6 kts | 144° |
| 2026-05-04 07:50 | 24.55736 | 39.71191 | 2104 ft | 6 kts | 90° |
| 2026-05-04 07:50 | 24.55740 | 39.71205 | 2104 ft | 8 kts | 75° |
| 2026-05-04 07:50 | 24.55743 | 39.71220 | 2106 ft | 1 kts | 76° |